Time;durP1;ratioP1;P1;durP2;ratioP2;P2;SDS_P1;SDS_P2;PMS_P1;PMS_P2;Temp;Humidity;BMP_temperature;BMP_pressure;BME280_temperature;BME280_humidity;BME280_pressure;Samples;Min_cycle;Max_cycle;Signal;HPM_P1;HPM_P2
2022/11/10 00:02:24;;;;;;;2.03;1.92;;;9.90;99.90;;;;;;5913477;24;20030;-86
2022/11/10 00:06:23;;;;;;;2.10;1.90;;;9.90;99.90;;;;;;5901933;24;20586;-85
2022/11/10 00:09:52;;;;;;;1.45;1.35;;;9.90;99.90;;;;;;5948626;24;20354;-87
2022/11/10 00:13:00;;;;;;;2.05;1.85;;;9.80;99.90;;;;;;6016990;23;20023;-86
2022/11/10 00:29:13;;;;;;;2.28;2.08;;;9.80;99.90;;;;;;6061007;23;20466;-86
2022/11/10 00:33:23;;;;;;;3.28;3.03;;;9.80;99.90;;;;;;5984742;23;20039;-87
2022/11/10 00:37:56;;;;;;;2.35;1.67;;;9.80;99.90;;;;;;5940786;24;20056;-86
2022/11/10 00:46:04;;;;;;;2.63;2.25;;;9.80;99.90;;;;;;5927527;24;20477;-86
2022/11/10 00:53:55;;;;;;;1.88;1.77;;;9.80;99.90;;;;;;6057034;23;20601;-87
2022/11/10 00:58:04;;;;;;;1.50;1.40;;;9.80;99.90;;;;;;6112908;23;20464;-86
2022/11/10 01:05:12;;;;;;;3.38;1.40;;;9.80;99.90;;;;;;6080376;23;20357;-86
2022/11/10 01:08:54;;;;;;;1.88;1.70;;;9.80;99.90;;;;;;6035919;23;20023;-88
2022/11/10 01:12:10;;;;;;;2.20;2.00;;;9.80;99.90;;;;;;6042455;23;20034;-86
2022/11/10 01:15:51;;;;;;;1.95;1.85;;;9.80;99.90;;;;;;6014947;23;20026;-87
2022/11/10 01:19:06;;;;;;;1.40;1.20;;;9.70;99.90;;;;;;6042181;23;20039;-86
2022/11/10 01:22:39;;;;;;;2.90;2.45;;;9.70;99.90;;;;;;6018530;23;20023;-86
2022/11/10 01:26:39;;;;;;;;;;;;;;;;;;;;;
2022/11/10 01:30:22;;;;;;;3.00;2.15;;;9.60;99.90;;;;;;6023031;23;20034;-84
2022/11/10 01:33:46;;;;;;;1.38;1.27;;;9.70;99.90;;;;;;6027424;23;20031;-84
2022/11/10 01:37:19;;;;;;;4.45;1.70;;;9.70;99.90;;;;;;6037132;23;20124;-84
2022/11/10 01:40:10;;;;;;;2.40;1.42;;;9.70;99.90;;;;;;6046142;23;20026;-84
2022/11/10 01:43:21;;;;;;;1.75;1.38;;;9.70;99.90;;;;;;6078208;23;20033;-84
2022/11/10 01:46:29;;;;;;;1.52;1.42;;;9.60;99.90;;;;;;6129189;23;20049;-84
2022/11/10 01:53:14;;;;;;;2.22;2.03;;;9.60;99.90;;;;;;6122687;23;20029;-84
2022/11/10 01:56:23;;;;;;;1.10;1.05;;;9.60;99.90;;;;;;6152812;23;20026;-84
2022/11/10 01:59:40;;;;;;;0.90;0.90;;;9.60;99.90;;;;;;6152965;23;20516;-84
2022/11/10 02:03:49;;;;;;;1.48;1.17;;;9.70;99.90;;;;;;6152661;23;20759;-84
2022/11/10 02:06:53;;;;;;;1.35;1.27;;;9.60;99.90;;;;;;6151194;23;20127;-84
2022/11/10 02:10:06;;;;;;;1.10;0.88;;;9.60;99.90;;;;;;6155272;23;20025;-85
2022/11/10 02:13:33;;;;;;;1.70;1.00;;;9.50;99.90;;;;;;6147826;23;20030;-84
2022/11/10 02:16:33;;;;;;;2.53;0.90;;;9.60;99.90;;;;;;6108464;23;20350;-84
2022/11/10 02:19:25;;;;;;;1.80;1.45;;;9.60;99.90;;;;;;6099335;23;20033;-84
2022/11/10 02:22:29;;;;;;;1.30;1.20;;;9.60;99.90;;;;;;6106777;23;20025;-84
2022/11/10 02:25:26;;;;;;;1.67;1.40;;;9.70;99.90;;;;;;6108773;23;20041;-84
2022/11/10 02:28:14;;;;;;;0.93;0.93;;;9.60;99.90;;;;;;6102557;23;20381;-84
2022/11/10 02:31:02;;;;;;;1.30;1.20;;;9.60;99.90;;;;;;6113505;23;20131;-84
2022/11/10 02:34:26;;;;;;;1.70;1.10;;;9.60;99.90;;;;;;6112833;23;20026;-84
2022/11/10 02:37:21;;;;;;;2.10;1.10;;;9.60;99.90;;;;;;6137499;23;20025;-84
2022/11/10 02:40:13;;;;;;;1.33;1.23;;;9.60;99.90;;;;;;6108179;23;20350;-84
2022/11/10 02:43:04;;;;;;;1.63;1.50;;;9.60;99.90;;;;;;6106039;23;20022;-84
2022/11/10 02:46:01;;;;;;;1.25;1.15;;;9.60;99.90;;;;;;6109387;23;20018;-84
2022/11/10 02:48:55;;;;;;;1.08;0.80;;;9.60;99.90;;;;;;6152203;23;20021;-84
2022/11/10 02:51:47;;;;;;;1.15;1.15;;;9.60;99.90;;;;;;6073841;23;20033;-84
2022/11/10 02:54:33;;;;;;;0.70;0.70;;;9.50;99.90;;;;;;6094642;23;20014;-84
2022/11/10 02:57:22;;;;;;;1.15;1.05;;;9.60;99.90;;;;;;6124533;23;20661;-84
2022/11/10 03:00:14;;;;;;;1.30;1.13;;;9.60;99.90;;;;;;6104061;23;20022;-85
2022/11/10 03:03:04;;;;;;;1.60;1.00;;;9.60;99.90;;;;;;6090260;23;20630;-85
2022/11/10 03:05:51;;;;;;;1.13;1.02;;;9.60;99.90;;;;;;6115152;23;20018;-85
2022/11/10 03:08:40;;;;;;;1.13;1.05;;;9.50;99.90;;;;;;6104201;23;20025;-85
2022/11/10 03:11:28;;;;;;;0.88;0.88;;;9.60;99.90;;;;;;6126167;23;20025;-85
2022/11/10 03:14:17;;;;;;;1.83;1.35;;;9.50;99.90;;;;;;6105052;23;20017;-85
2022/11/10 03:17:21;;;;;;;0.95;0.93;;;9.60;99.90;;;;;;6111756;23;20026;-85
2022/11/10 03:20:13;;;;;;;1.52;0.80;;;9.50;99.90;;;;;;6148922;23;20025;-85
2022/11/10 03:23:29;;;;;;;0.70;0.70;;;9.50;99.90;;;;;;6147385;23;20028;-89
2022/11/10 03:27:19;;;;;;;0.98;0.75;;;9.50;99.90;;;;;;6043831;23;20033;-88
2022/11/10 03:30:41;;;;;;;0.60;0.60;;;9.60;99.90;;;;;;6057451;23;20019;-87
2022/11/10 03:33:36;;;;;;;1.65;1.55;;;9.50;99.90;;;;;;6065683;23;20123;-88
2022/11/10 03:36:32;;;;;;;1.42;0.80;;;9.00;99.90;;;;;;6064541;23;20355;-86
2022/11/10 03:39:44;;;;;;;0.68;0.68;;;8.80;99.90;;;;;;6153685;23;20029;-86
2022/11/10 03:43:17;;;;;;;4.20;1.05;;;8.70;99.90;;;;;;6148945;23;20021;-87
2022/11/10 03:46:49;;;;;;;0.65;0.60;;;8.60;99.90;;;;;;5979350;23;20114;-85
2022/11/10 03:49:42;;;;;;;0.95;0.80;;;8.70;99.90;;;;;;6046166;23;20022;-85
2022/11/10 03:52:40;;;;;;;0.68;0.68;;;8.50;99.90;;;;;;6077230;23;20019;-85
2022/11/10 03:55:45;;;;;;;2.00;1.00;;;8.50;99.90;;;;;;6082006;23;20015;-85
2022/11/10 03:58:41;;;;;;;0.80;0.80;;;8.40;99.90;;;;;;6069349;23;20022;-86
2022/11/10 04:01:31;;;;;;;2.67;1.08;;;8.40;99.90;;;;;;6094368;23;20014;-85
2022/11/10 04:09:00;;;;;;;1.10;1.00;;;8.40;99.90;;;;;;6094759;23;20018;-85
2022/11/10 04:18:28;;;;;;;4.10;1.17;;;8.30;99.90;;;;;;6129211;23;20460;-87
2022/11/10 04:21:15;;;;;;;6.18;1.38;;;8.40;99.90;;;;;;6159602;23;20036;-84
2022/11/10 04:24:01;;;;;;;2.70;1.15;;;8.40;99.90;;;;;;6137163;23;20034;-86
2022/11/10 04:26:52;;;;;;;2.13;2.03;;;8.40;99.90;;;;;;6128325;23;20028;-86
2022/11/10 04:29:51;;;;;;;1.70;1.60;;;8.40;99.90;;;;;;6129561;23;20337;-86
2022/11/10 04:32:55;;;;;;;2.85;2.60;;;8.40;99.90;;;;;;6153944;23;20025;-85
2022/11/10 04:35:54;;;;;;;1.90;1.35;;;8.40;99.90;;;;;;6128914;23;20025;-85
2022/11/10 04:38:40;;;;;;;4.53;2.28;;;8.30;99.90;;;;;;6107987;23;20018;-86
2022/11/10 04:41:30;;;;;;;2.67;1.90;;;8.40;99.90;;;;;;6129568;23;20021;-85
2022/11/10 04:44:21;;;;;;;1.33;1.15;;;8.30;99.90;;;;;;6108624;23;20030;-86
2022/11/10 04:47:10;;;;;;;4.35;1.80;;;8.40;99.90;;;;;;6128275;23;20018;-85
2022/11/10 04:50:08;;;;;;;3.15;2.08;;;8.40;99.90;;;;;;6131996;23;20026;-86
2022/11/10 04:53:16;;;;;;;2.30;1.40;;;8.40;99.90;;;;;;6120361;23;20349;-86
2022/11/10 04:56:19;;;;;;;7.85;2.35;;;8.30;99.90;;;;;;6117246;23;20021;-86
2022/11/10 04:59:13;;;;;;;2.63;1.88;;;8.30;99.90;;;;;;6159425;23;20024;-85
2022/11/10 05:02:22;;;;;;;1.42;1.33;;;8.30;99.90;;;;;;6142488;23;20021;-86
2022/11/10 05:05:48;;;;;;;5.82;1.98;;;8.30;99.90;;;;;;6153642;23;20330;-85
2022/11/10 05:08:52;;;;;;;1.75;1.30;;;8.30;99.90;;;;;;6143175;23;20036;-85
2022/11/10 05:11:47;;;;;;;2.88;1.65;;;8.30;99.90;;;;;;6147165;23;20026;-86
2022/11/10 05:14:42;;;;;;;2.67;2.47;;;8.40;99.90;;;;;;6112419;23;20018;-84
2022/11/10 05:17:41;;;;;;;2.83;1.77;;;8.40;99.90;;;;;;6144744;23;20018;-86
2022/11/10 05:20:30;;;;;;;2.97;2.78;;;8.30;99.90;;;;;;6114091;23;20037;-85
2022/11/10 05:26:22;;;;;;;5.15;2.70;;;8.30;99.90;;;;;;6136870;23;20025;-85
2022/11/10 05:29:09;;;;;;;2.97;2.03;;;8.30;99.90;;;;;;6163477;23;20029;-86
2022/11/10 05:31:55;;;;;;;3.30;1.75;;;8.30;99.90;;;;;;6160509;23;20021;-85
2022/11/10 05:35:52;;;;;;;2.67;2.47;;;8.30;99.90;;;;;;6129922;23;20471;-85
2022/11/10 05:38:42;;;;;;;5.90;2.58;;;8.20;99.90;;;;;;6143774;23;20021;-85
2022/11/10 05:41:42;;;;;;;2.67;2.25;;;8.20;99.90;;;;;;6130474;23;20449;-85
2022/11/10 05:44:42;;;;;;;6.43;2.53;;;8.20;99.90;;;;;;6156030;23;20528;-85
2022/11/10 05:48:08;;;;;;;3.05;2.50;;;8.20;99.90;;;;;;6157807;23;20025;-85
2022/11/10 05:51:00;;;;;;;3.33;2.38;;;8.30;99.90;;;;;;6164788;23;20025;-86
2022/11/10 05:54:26;;;;;;;15.82;4.47;;;8.20;99.90;;;;;;6128703;23;20025;-85
2022/11/10 05:57:32;;;;;;;3.30;2.58;;;8.30;99.90;;;;;;6163109;23;20037;-84
2022/11/10 06:00:21;;;;;;;27.67;4.97;;;8.40;99.90;;;;;;6158842;23;20022;-83
2022/11/10 06:03:19;;;;;;;3.05;2.85;;;8.30;99.90;;;;;;6163523;23;20029;-83
2022/11/10 06:06:15;;;;;;;2.92;2.65;;;8.30;99.90;;;;;;6164500;23;20025;-82
2022/11/10 06:09:14;;;;;;;4.22;2.67;;;8.30;99.90;;;;;;6175404;23;20052;-83
2022/11/10 06:16:45;;;;;;;;;;;;;;;;;;;;;
2022/11/10 06:19:52;;;;;;;3.15;2.75;;;8.30;99.90;;;;;;6098349;23;20022;-84
2022/11/10 06:22:43;;;;;;;3.05;2.13;;;8.40;99.90;;;;;;6127816;23;20334;-81
2022/11/10 06:25:32;;;;;;;3.22;2.50;;;8.40;99.90;;;;;;6134094;23;20353;-84
2022/11/10 06:28:20;;;;;;;8.75;3.03;;;8.50;99.90;;;;;;6125449;23;20029;-81
2022/11/10 06:31:10;;;;;;;4.15;3.13;;;8.50;99.90;;;;;;6124467;23;20029;-83
2022/11/10 06:35:08;;;;;;;4.97;1.98;;;8.50;99.90;;;;;;6124796;23;20022;-83
2022/11/10 06:38:01;;;;;;;3.85;2.25;;;8.50;99.90;;;;;;6132900;23;20500;-82
2022/11/10 06:40:50;;;;;;;1.58;1.48;;;8.50;99.90;;;;;;6098965;23;20018;-82
2022/11/10 06:43:36;;;;;;;4.97;1.63;;;8.60;99.90;;;;;;6137642;23;20028;-82
2022/11/10 06:46:22;;;;;;;5.15;2.08;;;8.60;99.90;;;;;;6163381;23;20024;-82
2022/11/10 06:49:09;;;;;;;2.38;2.17;;;8.50;99.90;;;;;;6162417;23;20437;-83
2022/11/10 06:51:56;;;;;;;3.35;1.90;;;8.60;99.90;;;;;;6159356;23;20035;-82
2022/11/10 06:54:42;;;;;;;2.33;2.10;;;8.60;99.90;;;;;;6128783;23;20457;-82
2022/11/10 06:57:39;;;;;;;11.32;2.10;;;8.60;99.90;;;;;;6165632;23;20454;-83
2022/11/10 07:00:26;;;;;;;4.35;1.65;;;8.50;99.90;;;;;;6156494;23;20461;-83
2022/11/10 07:03:18;;;;;;;5.22;2.15;;;8.50;99.90;;;;;;6162615;23;20528;-82
2022/11/10 07:06:05;;;;;;;4.68;1.92;;;8.50;99.90;;;;;;6164451;23;20338;-84
2022/11/10 07:08:51;;;;;;;3.45;3.15;;;8.50;99.90;;;;;;6155689;23;20021;-85
2022/11/10 07:11:40;;;;;;;7.80;3.33;;;8.50;99.90;;;;;;6116509;23;20037;-85
2022/11/10 07:14:26;;;;;;;2.95;1.88;;;8.60;99.90;;;;;;6165944;23;20021;-85
2022/11/10 07:17:17;;;;;;;5.35;1.90;;;8.50;99.90;;;;;;6158784;23;20025;-85
2022/11/10 07:20:09;;;;;;;2.55;2.05;;;8.50;99.90;;;;;;6153818;23;20032;-85
2022/11/10 07:23:03;;;;;;;9.13;2.25;;;8.60;99.90;;;;;;6162996;23;20028;-85
2022/11/10 07:25:50;;;;;;;2.50;1.83;;;8.60;99.90;;;;;;6138722;23;20013;-86
2022/11/10 07:33:10;;;;;;;2.30;2.10;;;8.60;99.90;;;;;;6073676;23;20026;-85
2022/11/10 07:35:59;;;;;;;5.38;1.98;;;8.50;99.90;;;;;;6049465;23;20026;-85
2022/11/10 07:38:45;;;;;;;7.57;1.85;;;8.40;99.90;;;;;;6049287;23;20044;-82
2022/11/10 07:41:38;;;;;;;2.38;2.17;;;8.40;99.90;;;;;;6076829;23;20331;-84
2022/11/10 07:44:25;;;;;;;5.68;1.98;;;8.30;99.90;;;;;;6049210;23;20454;-82
2022/11/10 07:47:14;;;;;;;1.95;1.85;;;8.30;99.90;;;;;;6068755;23;20027;-82
2022/11/10 07:50:03;;;;;;;4.40;1.88;;;8.30;99.90;;;;;;6096526;23;20501;-80
2022/11/10 07:52:49;;;;;;;2.10;1.88;;;8.30;99.90;;;;;;6094212;23;20026;-83
2022/11/10 07:55:37;;;;;;;2.20;1.98;;;8.30;99.90;;;;;;6049592;23;20418;-84
2022/11/10 07:58:24;;;;;;;1.83;1.70;;;8.30;99.90;;;;;;6069739;23;20021;-83
2022/11/10 08:01:10;;;;;;;2.47;2.28;;;8.40;99.90;;;;;;6079937;23;20031;-82
2022/11/10 08:04:03;;;;;;;4.60;2.45;;;8.50;99.90;;;;;;6103835;23;20025;-81
2022/11/10 08:06:49;;;;;;;2.80;1.90;;;8.80;99.90;;;;;;6157949;23;20028;-81
2022/11/10 08:09:36;;;;;;;1.60;1.50;;;9.00;99.90;;;;;;6194188;23;20449;-82
2022/11/10 08:12:22;;;;;;;7.18;1.98;;;9.20;99.90;;;;;;6158240;23;20055;-82
2022/11/10 08:15:11;;;;;;;2.67;1.92;;;9.40;99.90;;;;;;6190829;23;20028;-84
2022/11/10 08:18:05;;;;;;;6.38;2.15;;;9.50;99.90;;;;;;6187051;23;20017;-84
2022/11/10 08:21:02;;;;;;;1.90;1.80;;;9.60;99.90;;;;;;6184226;23;20025;-87
2022/11/10 08:23:50;;;;;;;3.10;2.72;;;9.80;99.90;;;;;;6189409;23;20017;-85
2022/11/10 08:26:37;;;;;;;2.53;2.00;;;9.90;99.90;;;;;;6193729;23;20013;-84
2022/11/10 08:29:23;;;;;;;5.82;1.83;;;9.90;99.90;;;;;;6195187;23;20017;-83
2022/11/10 08:32:09;;;;;;;1.73;1.60;;;10.20;99.90;;;;;;6188424;23;20025;-83
2022/11/10 08:34:55;;;;;;;2.58;2.38;;;10.10;99.90;;;;;;6194789;23;20025;-83
2022/11/10 08:37:41;;;;;;;2.40;2.20;;;10.10;99.90;;;;;;6196635;23;20017;-84
2022/11/10 08:40:28;;;;;;;4.13;1.85;;;10.10;99.90;;;;;;6189051;23;20021;-83
2022/11/10 08:43:15;;;;;;;2.13;1.80;;;10.00;99.90;;;;;;6193077;23;20349;-83
2022/11/10 08:46:02;;;;;;;4.15;2.42;;;10.10;99.90;;;;;;6160714;23;20013;-83
2022/11/10 08:48:48;;;;;;;2.38;1.90;;;10.10;99.90;;;;;;6160250;23;20025;-83
2022/11/10 08:51:34;;;;;;;3.13;2.95;;;10.10;99.90;;;;;;6160003;23;20357;-83
2022/11/10 08:54:23;;;;;;;7.53;1.92;;;10.00;99.90;;;;;;6160800;23;20032;-83
2022/11/10 08:57:10;;;;;;;4.10;3.78;;;10.00;99.90;;;;;;6145792;23;20453;-83
2022/11/10 08:59:58;;;;;;;7.25;2.30;;;9.90;99.90;;;;;;6159937;23;20685;-83
2022/11/10 09:02:55;;;;;;;2.65;2.08;;;9.90;99.90;;;;;;6159800;23;20032;-83
2022/11/10 09:05:42;;;;;;;3.63;2.47;;;10.00;99.90;;;;;;6195963;23;20063;-83
2022/11/10 09:08:32;;;;;;;4.53;3.22;;;10.10;99.90;;;;;;6187909;23;20477;-83
2022/11/10 09:11:18;;;;;;;7.22;2.58;;;10.20;99.90;;;;;;6138774;23;20036;-83
2022/11/10 09:14:06;;;;;;;2.05;1.73;;;10.30;99.90;;;;;;6160416;23;20052;-84
2022/11/10 09:16:52;;;;;;;2.67;2.33;;;10.50;99.90;;;;;;6144429;23;20039;-83
2022/11/10 09:19:38;;;;;;;2.85;1.83;;;10.80;99.90;;;;;;6169602;23;20029;-83
2022/11/10 09:22:28;;;;;;;4.22;2.00;;;10.80;99.90;;;;;;6174743;23;20021;-83
2022/11/10 09:25:17;;;;;;;24.73;3.63;;;11.10;99.90;;;;;;6168393;23;20036;-83
2022/11/10 09:28:10;;;;;;;3.35;2.88;;;11.00;99.90;;;;;;6159523;23;20028;-83
2022/11/10 09:30:56;;;;;;;2.30;2.07;;;11.10;99.90;;;;;;6194052;23;20024;-83
2022/11/10 09:33:42;;;;;;;1.63;1.52;;;10.90;99.90;;;;;;6196956;23;20255;-83
2022/11/10 09:36:31;;;;;;;3.85;2.10;;;11.00;99.90;;;;;;6159416;23;20029;-83
2022/11/10 09:39:20;;;;;;;1.55;1.45;;;11.20;99.90;;;;;;6159609;23;20028;-83
2022/11/10 09:42:32;;;;;;;3.08;1.80;;;11.30;99.90;;;;;;6160707;23;20017;-83
2022/11/10 09:45:36;;;;;;;1.98;1.83;;;11.10;99.90;;;;;;6168935;23;20021;-83
2022/11/10 09:48:26;;;;;;;2.85;2.65;;;11.10;99.90;;;;;;6159413;23;20081;-82
2022/11/10 09:51:23;;;;;;;3.58;2.58;;;11.60;99.90;;;;;;6170834;23;20024;-83
2022/11/10 09:54:38;;;;;;;8.60;2.80;;;12.00;99.90;;;;;;6160063;23;20025;-83
2022/11/10 09:57:26;;;;;;;3.55;2.08;;;12.20;99.90;;;;;;6147409;23;20025;-83
2022/11/10 10:00:14;;;;;;;3.90;1.88;;;11.90;99.90;;;;;;6159604;23;20061;-83
2022/11/10 10:03:02;;;;;;;3.63;1.98;;;11.80;99.90;;;;;;6159688;23;20021;-83
2022/11/10 10:06:12;;;;;;;13.45;6.18;;;11.70;99.90;;;;;;6139483;23;20348;-83
2022/11/10 10:09:31;;;;;;;5.20;1.80;;;11.30;99.90;;;;;;6158960;23;20021;-83
2022/11/10 10:12:39;;;;;;;2.83;2.58;;;11.30;99.90;;;;;;6158768;23;20336;-82
2022/11/10 10:15:46;;;;;;;2.55;1.38;;;11.30;99.90;;;;;;6159471;23;20021;-83
2022/11/10 10:18:58;;;;;;;5.63;3.20;;;11.40;99.90;;;;;;6173743;23;20024;-83
2022/11/10 10:21:53;;;;;;;4.47;1.50;;;11.50;99.90;;;;;;6155731;23;20032;-82
2022/11/10 10:24:39;;;;;;;1.58;1.48;;;11.40;99.90;;;;;;6187061;23;20456;-83
2022/11/10 10:27:27;;;;;;;2.00;1.65;;;11.80;99.90;;;;;;6158708;23;20033;-83
2022/11/10 10:30:20;;;;;;;2.58;2.38;;;11.80;99.90;;;;;;6196242;23;20652;-83
2022/11/10 10:33:38;;;;;;;3.08;1.80;;;11.90;99.90;;;;;;6168043;23;20452;-84
2022/11/10 10:36:31;;;;;;;9.80;2.38;;;12.20;99.90;;;;;;6187684;23;20017;-83
2022/11/10 10:39:29;;;;;;;7.97;2.28;;;12.10;99.90;;;;;;6177843;23;20028;-82
2022/11/10 10:42:33;;;;;;;3.17;2.80;;;12.20;99.90;;;;;;6185303;23;20024;-83
2022/11/10 10:45:31;;;;;;;5.07;2.17;;;12.30;99.90;;;;;;6193343;23;20035;-82
2022/11/10 10:48:31;;;;;;;2.22;1.83;;;12.30;99.90;;;;;;6186148;23;20680;-82
2022/11/10 10:51:31;;;;;;;2.22;1.70;;;12.50;99.90;;;;;;6135838;23;20461;-82
2022/11/10 10:54:28;;;;;;;2.28;2.08;;;12.60;99.90;;;;;;6151346;23;20013;-82
2022/11/10 10:57:28;;;;;;;9.25;3.08;;;12.10;99.90;;;;;;6170255;23;20029;-83
2022/11/10 11:00:18;;;;;;;2.90;1.60;;;11.50;99.90;;;;;;6166404;23;20032;-82
2022/11/10 11:03:48;;;;;;;1.67;1.58;;;11.20;99.90;;;;;;6171344;23;20032;-82
2022/11/10 11:06:35;;;;;;;4.35;2.38;;;11.00;99.90;;;;;;6195092;23;20429;-81
2022/11/10 11:09:27;;;;;;;3.13;1.90;;;10.90;99.90;;;;;;6196051;23;20017;-82
2022/11/10 11:12:27;;;;;;;2.92;2.20;;;10.90;99.90;;;;;;6166061;23;20029;-82
2022/11/10 11:15:27;;;;;;;3.50;1.95;;;11.40;99.90;;;;;;6191245;23;20483;-83
2022/11/10 11:18:18;;;;;;;2.03;1.88;;;11.80;99.90;;;;;;6185731;23;20337;-82
2022/11/10 11:21:29;;;;;;;8.98;1.90;;;11.80;99.90;;;;;;6184930;23;20021;-82
2022/11/10 11:24:20;;;;;;;3.33;1.95;;;12.00;99.90;;;;;;6188098;23;20029;-82
2022/11/10 11:27:35;;;;;;;5.22;2.13;;;12.00;99.90;;;;;;6158131;23;20017;-82
2022/11/10 11:30:50;;;;;;;1.80;1.60;;;12.10;99.90;;;;;;6179517;23;20013;-83
2022/11/10 11:34:16;;;;;;;1.17;1.17;;;12.40;99.90;;;;;;6163465;23;20028;-83
2022/11/10 11:37:46;;;;;;;4.25;1.48;;;12.60;99.90;;;;;;6168893;23;20665;-83
2022/11/10 11:45:54;;;;;;;2.90;1.45;;;12.40;99.90;;;;;;5989248;23;20031;-84
2022/11/10 11:53:29;;;;;;;4.22;2.22;;;11.40;99.90;;;;;;5967701;23;20043;-83
2022/11/10 12:01:00;;;;;;;2.55;1.38;;;11.60;99.90;;;;;;6035197;23;20467;-83
2022/11/10 12:05:12;;;;;;;1.20;1.10;;;11.80;99.90;;;;;;6037450;23;20375;-83
2022/11/10 12:08:51;;;;;;;1.40;1.30;;;11.70;99.90;;;;;;6156481;23;20464;-83
2022/11/10 12:12:02;;;;;;;1.60;1.50;;;11.90;99.90;;;;;;6167027;23;20028;-83
2022/11/10 12:15:00;;;;;;;3.85;2.00;;;12.10;99.90;;;;;;6193860;23;20024;-82
2022/11/10 12:18:39;;;;;;;1.27;0.98;;;12.20;99.90;;;;;;6182342;23;20032;-83
2022/11/10 12:22:10;;;;;;;5.78;3.28;;;11.60;99.90;;;;;;6160743;23;20125;-82
2022/11/10 12:26:01;;;;;;;6.30;2.08;;;11.30;99.90;;;;;;6158935;23;20385;-82
2022/11/10 12:29:26;;;;;;;3.30;1.85;;;11.30;99.90;;;;;;6133147;23;20448;-82
2022/11/10 12:32:57;;;;;;;1.48;1.13;;;11.50;99.90;;;;;;6170884;23;20032;-82
2022/11/10 12:36:15;;;;;;;1.60;1.50;;;11.80;99.90;;;;;;6134526;23;20034;-82
2022/11/10 12:43:37;;;;;;;1.35;1.25;;;11.80;99.90;;;;;;6097861;23;20124;-82
2022/11/10 12:47:19;;;;;;;3.72;1.27;;;12.10;99.90;;;;;;6107890;23;20445;-83
2022/11/10 12:51:32;;;;;;;3.35;1.38;;;12.10;99.90;;;;;;6079166;23;20027;-83
2022/11/10 12:54:56;;;;;;;4.50;2.50;;;12.30;99.90;;;;;;6107180;23;20033;-82
2022/11/10 12:58:36;;;;;;;1.00;0.95;;;12.40;99.90;;;;;;6094658;23;20503;-82
2022/11/10 13:02:25;;;;;;;4.15;1.70;;;12.50;99.90;;;;;;6112252;23;20030;-82
2022/11/10 13:15:28;;;;;;;3.13;2.65;;;12.50;99.90;;;;;;6137731;23;20340;-82
2022/11/10 13:24:37;;;;;;;1.08;0.77;;;12.80;99.90;;;;;;6047766;23;20026;-83
2022/11/10 13:28:05;;;;;;;1.23;0.90;;;12.70;99.90;;;;;;6033830;23;20347;-82
2022/11/10 13:36:44;;;;;;;2.85;1.75;;;13.10;99.90;;;;;;6190399;23;20028;-83
2022/11/10 13:40:45;;;;;;;6.32;1.75;;;12.90;99.90;;;;;;6031433;23;20030;-82
2022/11/10 13:44:17;;;;;;;;;;;;;;;;;;;;;
2022/11/10 13:47:52;;;;;;;3.60;1.00;;;12.90;99.90;;;;;;6121134;23;19913;-83
2022/11/10 13:52:05;;;;;;;2.75;0.88;;;12.60;99.90;;;;;;6081041;23;20034;-83
2022/11/10 13:56:31;;;;;;;1.10;1.08;;;12.50;99.90;;;;;;6087826;23;20027;-83
2022/11/10 14:01:30;;;;;;;1.13;0.95;;;12.40;99.90;;;;;;6084655;23;20033;-83
2022/11/10 14:09:58;;;;;;;1.65;0.98;;;12.30;99.90;;;;;;5855505;24;20226;-83
2022/11/10 14:18:13;;;;;;;1.45;1.30;;;12.50;99.90;;;;;;6102354;23;20026;-82
2022/11/10 14:21:55;;;;;;;2.75;0.90;;;12.40;99.90;;;;;;6131300;23;20020;-82
2022/11/10 14:35:10;;;;;;;;;;;;;;;;;;;;;
2022/11/10 14:43:47;;;;;;;1.42;1.33;;;11.80;99.90;;;;;;6097103;23;20065;-83
2022/11/10 14:48:23;;;;;;;;;;;;;;;;;;;;;
2022/11/10 14:52:24;;;;;;;2.60;1.20;;;11.50;99.90;;;;;;5990877;23;20032;-83
2022/11/10 15:10:30;;;;;;;2.03;1.45;;;10.30;99.90;;;;;;5951345;23;20027;-82
2022/11/10 15:14:31;;;;;;;6.03;1.20;;;10.10;99.90;;;;;;6036657;23;20015;-82
2022/11/10 15:17:59;;;;;;;0.90;0.90;;;9.90;99.90;;;;;;6048694;23;20030;-82
2022/11/10 15:21:43;;;;;;;2.45;1.67;;;9.80;99.90;;;;;;6051372;23;20026;-82
2022/11/10 15:25:09;;;;;;;2.20;1.00;;;9.50;99.90;;;;;;6092695;23;20025;-82
2022/11/10 15:29:23;;;;;;;1.52;1.42;;;9.20;99.90;;;;;;6117996;23;20383;-82
2022/11/10 15:32:50;;;;;;;1.02;1.02;;;9.10;99.90;;;;;;6104130;23;20033;-82
2022/11/10 15:36:20;;;;;;;1.55;1.10;;;9.00;99.90;;;;;;6087196;23;20358;-82
2022/11/10 15:39:58;;;;;;;2.15;1.25;;;8.80;99.90;;;;;;6095331;23;20577;-82
2022/11/10 15:43:33;;;;;;;2.22;1.00;;;8.60;99.90;;;;;;6084350;23;20478;-82
2022/11/10 15:50:13;;;;;;;0.90;0.80;;;8.30;99.90;;;;;;6107526;23;20033;-82
2022/11/10 15:57:15;;;;;;;1.33;1.27;;;8.20;99.90;;;;;;6131641;23;20496;-82
2022/11/10 16:00:24;;;;;;;0.98;0.98;;;8.10;99.90;;;;;;6098685;23;20028;-82
2022/11/10 16:07:58;;;;;;;3.60;2.00;;;8.00;99.90;;;;;;6070107;23;20030;-82
2022/11/10 16:11:13;;;;;;;;;;;7.90;99.90;;;;;;6114214;23;20554;-82
2022/11/10 16:15:28;;;;;;;1.48;1.02;;;7.90;99.90;;;;;;6050733;23;19925;-82
2022/11/10 16:18:39;;;;;;;1.33;1.30;;;7.70;99.90;;;;;;6103146;23;20021;-82
2022/11/10 16:21:55;;;;;;;3.53;1.73;;;7.70;99.90;;;;;;6133244;23;20034;-82
2022/11/10 16:25:41;;;;;;;1.40;1.20;;;7.70;99.90;;;;;;6090853;23;20029;-82
2022/11/10 16:29:43;;;;;;;2.42;1.38;;;7.70;99.90;;;;;;6111160;23;20026;-82
2022/11/10 16:34:23;;;;;;;3.65;1.77;;;7.70;99.90;;;;;;6065652;23;20022;-82
2022/11/10 16:41:57;;;;;;;2.58;1.92;;;7.40;99.90;;;;;;6105312;23;20029;-82
2022/11/10 16:45:47;;;;;;;1.65;1.55;;;7.10;99.90;;;;;;6108542;23;20022;-81
2022/11/10 16:49:46;;;;;;;1.60;1.48;;;7.00;99.90;;;;;;6086795;23;20048;-82
2022/11/10 16:52:51;;;;;;;1.40;1.27;;;7.00;99.90;;;;;;6092133;23;20590;-82
2022/11/10 16:56:07;;;;;;;2.10;1.52;;;6.90;99.90;;;;;;6126732;23;20026;-81
2022/11/10 16:59:12;;;;;;;1.85;1.65;;;6.90;99.90;;;;;;6113888;23;20772;-82
2022/11/10 17:02:24;;;;;;;3.17;1.40;;;7.00;99.90;;;;;;6106774;23;20014;-82
2022/11/10 17:11:23;;;;;;;;;;;;;;;;;;;;;
2022/11/10 17:15:29;;;;;;;4.30;1.70;;;6.60;99.90;;;;;;6084620;23;20386;-81
2022/11/10 17:22:34;;;;;;;2.25;2.05;;;6.40;99.90;;;;;;5989591;23;20043;-82
2022/11/10 17:25:50;;;;;;;3.63;1.75;;;6.40;99.90;;;;;;5989932;24;20024;-81
2022/11/10 17:29:25;;;;;;;1.63;1.52;;;6.20;99.90;;;;;;6019350;23;20355;-82
2022/11/10 17:37:45;;;;;;;2.25;1.50;;;6.20;99.90;;;;;;6103996;23;20465;-82
2022/11/10 17:41:23;;;;;;;1.63;1.52;;;6.20;99.90;;;;;;6101293;23;20029;-81
2022/11/10 17:45:19;;;;;;;2.38;2.17;;;6.20;99.90;;;;;;6084515;23;20037;-82
2022/11/10 18:04:59;;;;;;;1.77;1.67;;;5.90;99.90;;;;;;6008483;23;20569;-80
2022/11/10 18:07:49;;;;;;;5.40;1.30;;;5.90;99.90;;;;;;6013094;23;20036;-80
2022/11/10 18:10:35;;;;;;;3.17;2.00;;;5.70;99.90;;;;;;6037382;23;20030;-84
2022/11/10 18:13:21;;;;;;;2.30;2.17;;;5.40;99.90;;;;;;6075885;23;20508;-84
2022/11/10 18:16:11;;;;;;;1.80;1.70;;;5.50;99.90;;;;;;6069000;23;20042;-84
2022/11/10 18:18:57;;;;;;;2.45;2.25;;;5.60;99.90;;;;;;6035069;23;20029;-79
2022/11/10 18:21:43;;;;;;;2.78;2.17;;;5.60;99.90;;;;;;6098280;23;20022;-79
2022/11/10 18:24:29;;;;;;;1.67;1.58;;;5.60;99.90;;;;;;6095833;23;20026;-79
2022/11/10 18:27:18;;;;;;;2.97;2.20;;;5.40;99.90;;;;;;6056679;23;20122;-82
2022/11/10 18:30:05;;;;;;;5.80;2.28;;;5.40;99.90;;;;;;6071066;23;20038;-82
2022/11/10 18:33:45;;;;;;;4.05;1.90;;;5.50;99.90;;;;;;6172958;23;20025;-82
2022/11/10 18:36:31;;;;;;;3.72;1.70;;;5.50;99.90;;;;;;6158604;23;20021;-82
2022/11/10 18:39:18;;;;;;;8.02;1.77;;;5.60;99.90;;;;;;6158436;23;20021;-81
2022/11/10 18:42:08;;;;;;;6.75;2.97;;;5.50;99.90;;;;;;6159107;23;20013;-82
2022/11/10 18:44:54;;;;;;;5.13;2.58;;;5.30;99.90;;;;;;6158219;23;20025;-82
2022/11/10 18:47:47;;;;;;;2.33;2.20;;;5.40;99.90;;;;;;6158781;23;20028;-82
2022/11/10 18:50:37;;;;;;;2.28;2.17;;;5.50;99.90;;;;;;6159102;23;20021;-82
2022/11/10 18:53:23;;;;;;;3.40;3.10;;;5.50;99.90;;;;;;6194971;23;20020;-82
2022/11/10 18:56:13;;;;;;;6.40;2.38;;;5.50;99.90;;;;;;6158783;23;20021;-82
2022/11/10 18:59:04;;;;;;;6.35;4.63;;;5.50;99.90;;;;;;6163169;23;20013;-82
2022/11/10 19:01:54;;;;;;;4.88;2.25;;;5.40;99.90;;;;;;6159186;23;20021;-82
2022/11/10 19:04:44;;;;;;;5.53;2.90;;;5.40;99.90;;;;;;6158873;23;20031;-82
2022/11/10 19:07:37;;;;;;;2.80;2.50;;;5.20;99.90;;;;;;6139275;23;20453;-82
2022/11/10 19:10:24;;;;;;;5.43;2.75;;;5.20;99.90;;;;;;6139002;23;20031;-82
2022/11/10 19:13:10;;;;;;;3.28;2.40;;;5.40;99.90;;;;;;6099636;23;20029;-82
2022/11/10 19:16:01;;;;;;;2.63;2.42;;;5.40;99.90;;;;;;6167556;23;20487;-82
2022/11/10 19:18:47;;;;;;;4.63;2.10;;;5.10;99.90;;;;;;6192468;23;20025;-81
2022/11/10 19:21:34;;;;;;;4.72;1.98;;;4.80;99.90;;;;;;6159523;23;20036;-82
2022/11/10 19:24:21;;;;;;;1.48;1.38;;;4.80;99.90;;;;;;6159016;23;20021;-82
2022/11/10 19:27:13;;;;;;;4.93;1.88;;;4.80;99.90;;;;;;6190809;23;20017;-82
2022/11/10 19:29:58;;;;;;;2.00;1.90;;;4.70;99.90;;;;;;6159587;23;20033;-82
2022/11/10 19:32:57;;;;;;;2.65;2.45;;;4.70;99.90;;;;;;6185030;23;20048;-82